Time;durP1;ratioP1;P1;durP2;ratioP2;P2;SDS_P1;SDS_P2;PMS_P1;PMS_P2;Temp;Humidity;BMP_temperature;BMP_pressure;BME280_temperature;BME280_humidity;BME280_pressure;Samples;Min_cycle;Max_cycle;Signal;HPM_P1;HPM_P2
2023/01/08 00:00:47;;;;;;;2.67;2.27;;;;;;;;;;5009275;28;20425;-44
2023/01/08 00:03:14;;;;;;;2.60;2.40;;;;;;;;;;5013290;28;20434;-43
2023/01/08 00:05:40;;;;;;;3.53;2.27;;;;;;;;;;5007259;28;20416;-43
2023/01/08 00:08:07;;;;;;;2.33;2.23;;;;;;;;;;5012223;28;20427;-43
2023/01/08 00:10:33;;;;;;;2.77;2.23;;;;;;;;;;5013296;28;21012;-43
2023/01/08 00:12:59;;;;;;;2.70;2.37;;;;;;;;;;5013347;28;20415;-43
2023/01/08 00:15:25;;;;;;;2.27;2.10;;;;;;;;;;5009957;28;20429;-43
2023/01/08 00:17:51;;;;;;;2.50;2.30;;;;;;;;;;5012813;28;20487;-43
2023/01/08 00:20:17;;;;;;;7.03;2.20;;;;;;;;;;5006381;28;20403;-44
2023/01/08 00:22:43;;;;;;;2.37;2.17;;;;;;;;;;5012869;28;20419;-43
2023/01/08 00:25:09;;;;;;;2.87;2.50;;;;;;;;;;5013022;28;20399;-43
2023/01/08 00:27:35;;;;;;;2.43;1.90;;;;;;;;;;5010490;28;20541;-44
2023/01/08 00:30:01;;;;;;;3.63;2.20;;;;;;;;;;5011841;28;20946;-44
2023/01/08 00:32:27;;;;;;;3.07;2.10;;;;;;;;;;5008087;28;20434;-43
2023/01/08 00:34:53;;;;;;;2.17;2.07;;;;;;;;;;5012745;28;20416;-43
2023/01/08 00:37:19;;;;;;;2.73;2.40;;;;;;;;;;5004292;28;20537;-44
2023/01/08 00:39:45;;;;;;;2.13;1.93;;;;;;;;;;5011310;28;20442;-43
2023/01/08 00:42:11;;;;;;;3.57;2.17;;;;;;;;;;5012511;28;20778;-43
2023/01/08 00:44:37;;;;;;;2.93;2.50;;;;;;;;;;5008801;28;20443;-43
2023/01/08 00:47:03;;;;;;;2.50;2.30;;;;;;;;;;5011658;28;20457;-44
2023/01/08 00:49:29;;;;;;;2.80;2.57;;;;;;;;;;5012485;28;20439;-44
2023/01/08 00:51:56;;;;;;;2.43;2.27;;;;;;;;;;5010007;28;20435;-43
2023/01/08 00:54:22;;;;;;;2.40;2.23;;;;;;;;;;5011218;28;20427;-44
2023/01/08 00:56:48;;;;;;;2.50;2.30;;;;;;;;;;5012433;28;20464;-44
2023/01/08 00:59:13;;;;;;;2.50;2.40;;;;;;;;;;5007561;28;20454;-44
2023/01/08 01:01:39;;;;;;;3.73;2.07;;;;;;;;;;5012081;28;20425;-44
2023/01/08 01:04:05;;;;;;;2.63;2.43;;;;;;;;;;5009458;28;20423;-43
2023/01/08 01:06:31;;;;;;;2.97;2.20;;;;;;;;;;5007310;28;20970;-43
2023/01/08 01:08:57;;;;;;;2.70;2.50;;;;;;;;;;5010384;28;20438;-43
2023/01/08 01:11:25;;;;;;;2.27;2.07;;;;;;;;;;5014980;28;20459;-43
2023/01/08 01:13:52;;;;;;;3.30;2.23;;;;;;;;;;5007374;28;20797;-43
2023/01/08 01:16:18;;;;;;;2.43;2.23;;;;;;;;;;5012138;28;20487;-43
2023/01/08 01:18:44;;;;;;;2.47;2.27;;;;;;;;;;5003734;28;20502;-44
2023/01/08 01:21:11;;;;;;;4.20;2.30;;;;;;;;;;5010510;28;20411;-43
2023/01/08 01:23:37;;;;;;;1.80;1.70;;;;;;;;;;5012122;28;20894;-43
2023/01/08 01:26:03;;;;;;;2.50;2.40;;;;;;;;;;5012005;28;20462;-43
2023/01/08 01:28:29;;;;;;;2.10;2.00;;;;;;;;;;5007061;28;20431;-43
2023/01/08 01:30:56;;;;;;;1.90;1.80;;;;;;;;;;5005611;28;20767;-44
2023/01/08 01:33:22;;;;;;;2.37;2.17;;;;;;;;;;5011866;28;20506;-44
2023/01/08 01:35:48;;;;;;;2.80;2.03;;;;;;;;;;5011753;28;20411;-44
2023/01/08 01:38:14;;;;;;;2.07;1.87;;;;;;;;;;5008674;28;20435;-44
2023/01/08 01:40:41;;;;;;;6.17;3.13;;;;;;;;;;5011984;28;20506;-44
2023/01/08 01:43:12;;;;;;;3.73;1.77;;;;;;;;;;5010473;28;20903;-43
2023/01/08 01:45:38;;;;;;;2.57;2.10;;;;;;;;;;5007697;28;20463;-45
2023/01/08 01:48:09;;;;;;;1.63;1.53;;;;;;;;;;5011338;28;20442;-43
2023/01/08 01:50:48;;;;;;;1.87;1.70;;;;;;;;;;5011634;28;20479;-43
2023/01/08 01:53:14;;;;;;;2.20;2.00;;;;;;;;;;5007184;28;20438;-43
2023/01/08 01:55:41;;;;;;;2.80;2.30;;;;;;;;;;5007366;28;20411;-43
2023/01/08 01:58:14;;;;;;;2.60;1.97;;;;;;;;;;5011358;28;20434;-43
2023/01/08 02:00:41;;;;;;;1.73;1.63;;;;;;;;;;5011576;28;20403;-44
2023/01/08 02:03:08;;;;;;;1.93;1.80;;;;;;;;;;5005279;28;20406;-44
2023/01/08 02:05:46;;;;;;;2.47;2.27;;;;;;;;;;5010969;28;20412;-43
2023/01/08 02:08:12;;;;;;;5.40;1.93;;;;;;;;;;5000480;28;20789;-44
2023/01/08 02:10:42;;;;;;;2.20;2.10;;;;;;;;;;5011321;28;20407;-43
2023/01/08 02:13:11;;;;;;;2.60;2.20;;;;;;;;;;5011378;28;20410;-43
2023/01/08 02:15:48;;;;;;;2.20;1.93;;;;;;;;;;5011421;28;20417;-44
2023/01/08 02:18:17;;;;;;;2.37;2.27;;;;;;;;;;5000876;28;20444;-44
2023/01/08 02:20:45;;;;;;;1.83;1.73;;;;;;;;;;5007654;28;20407;-43
2023/01/08 02:23:36;;;;;;;2.67;2.47;;;;;;;;;;5004050;28;20458;-44
2023/01/08 02:26:02;;;;;;;2.30;2.13;;;;;;;;;;5014438;28;20879;-44
2023/01/08 02:28:30;;;;;;;2.10;1.90;;;;;;;;;;5014967;28;20441;-44
2023/01/08 02:30:56;;;;;;;2.30;2.10;;;;;;;;;;5009826;28;20446;-43
2023/01/08 02:33:23;;;;;;;3.30;2.30;;;;;;;;;;5015166;28;20415;-44
2023/01/08 02:35:53;;;;;;;4.57;2.50;;;;;;;;;;5014719;28;20435;-44
2023/01/08 02:38:19;;;;;;;3.80;2.50;;;;;;;;;;5012774;28;20434;-43
2023/01/08 02:40:45;;;;;;;2.40;2.20;;;;;;;;;;5015027;28;20419;-44
2023/01/08 02:43:11;;;;;;;2.97;2.67;;;;;;;;;;5013867;28;20824;-44
2023/01/08 02:45:45;;;;;;;6.77;2.43;;;;;;;;;;5010798;28;20458;-44
2023/01/08 02:48:12;;;;;;;2.43;2.20;;;;;;;;;;5014040;28;20462;-44
2023/01/08 02:50:48;;;;;;;6.60;2.97;;;;;;;;;;5014794;28;20453;-44
2023/01/08 02:53:26;;;;;;;3.87;2.30;;;;;;;;;;5014719;28;20414;-44
2023/01/08 02:55:55;;;;;;;9.30;2.30;;;;;;;;;;5011218;28;20402;-44
2023/01/08 02:58:22;;;;;;;3.00;2.70;;;;;;;;;;5002847;28;20848;-44
2023/01/08 03:00:49;;;;;;;2.27;2.17;;;;;;;;;;5014439;28;20450;-44
2023/01/08 03:03:21;;;;;;;2.40;2.30;;;;;;;;;;5014124;28;20768;-44
2023/01/08 03:05:56;;;;;;;2.67;2.47;;;;;;;;;;5014699;28;20766;-44
2023/01/08 03:08:22;;;;;;;6.20;2.97;;;;;;;;;;5013757;28;20798;-43
2023/01/08 03:10:50;;;;;;;2.43;2.10;;;;;;;;;;5011798;28;20473;-43
2023/01/08 03:13:21;;;;;;;3.10;2.80;;;;;;;;;;5014181;28;20490;-43
2023/01/08 03:15:48;;;;;;;2.93;2.73;;;;;;;;;;5007676;28;20481;-44
2023/01/08 03:18:18;;;;;;;2.33;2.13;;;;;;;;;;5013885;28;20822;-44
2023/01/08 03:20:45;;;;;;;3.03;2.77;;;;;;;;;;5014254;28;20407;-44
2023/01/08 03:23:12;;;;;;;3.10;2.43;;;;;;;;;;5010629;28;20414;-44
2023/01/08 03:25:40;;;;;;;3.20;2.80;;;;;;;;;;5014192;28;20439;-43
2023/01/08 03:28:11;;;;;;;2.83;2.60;;;;;;;;;;5011846;28;20542;-43
2023/01/08 03:30:39;;;;;;;2.80;2.60;;;;;;;;;;5009842;28;20411;-43
2023/01/08 03:33:06;;;;;;;3.23;3.03;;;;;;;;;;5012537;28;20535;-44
2023/01/08 03:35:33;;;;;;;2.70;2.50;;;;;;;;;;5013027;28;20451;-44
2023/01/08 03:38:12;;;;;;;2.90;2.43;;;;;;;;;;5010116;28;21233;-43
2023/01/08 03:40:45;;;;;;;3.13;2.60;;;;;;;;;;5014203;28;20419;-44
2023/01/08 03:43:11;;;;;;;2.30;2.10;;;;;;;;;;5003819;28;20410;-43
2023/01/08 03:45:38;;;;;;;2.70;2.50;;;;;;;;;;5013959;28;20411;-44
2023/01/08 03:48:04;;;;;;;3.10;2.60;;;;;;;;;;5013267;28;20439;-43
2023/01/08 03:50:31;;;;;;;5.00;2.90;;;;;;;;;;5012213;28;20422;-43
2023/01/08 03:52:58;;;;;;;2.40;2.20;;;;;;;;;;5012092;28;20445;-44
2023/01/08 03:55:24;;;;;;;3.20;2.70;;;;;;;;;;5013750;28;20469;-43
2023/01/08 03:57:50;;;;;;;2.70;2.50;;;;;;;;;;5013085;28;20854;-44
2023/01/08 04:00:16;;;;;;;3.17;2.40;;;;;;;;;;5005492;28;20426;-43
2023/01/08 04:02:47;;;;;;;2.70;2.50;;;;;;;;;;5011854;28;20414;-44
2023/01/08 04:05:13;;;;;;;2.27;2.07;;;;;;;;;;5002692;28;20415;-45
2023/01/08 04:07:39;;;;;;;2.93;2.70;;;;;;;;;;5012989;28;20489;-43
2023/01/08 04:10:05;;;;;;;2.50;2.37;;;;;;;;;;5012140;28;20403;-44
2023/01/08 04:12:31;;;;;;;2.50;2.30;;;;;;;;;;5008280;28;20411;-43
2023/01/08 04:14:57;;;;;;;2.70;2.50;;;;;;;;;;5013193;28;20472;-43
2023/01/08 04:17:23;;;;;;;2.10;1.93;;;;;;;;;;5012744;28;20458;-44
2023/01/08 04:19:49;;;;;;;2.60;2.40;;;;;;;;;;5009844;28;20442;-43
2023/01/08 04:22:14;;;;;;;2.10;2.00;;;;;;;;;;5012956;28;20422;-44
2023/01/08 04:24:40;;;;;;;2.67;2.47;;;;;;;;;;5007110;28;20412;-43
2023/01/08 04:27:06;;;;;;;2.17;2.00;;;;;;;;;;5012408;28;20497;-44
2023/01/08 04:29:32;;;;;;;5.83;2.73;;;;;;;;;;5013223;28;20840;-44
2023/01/08 04:31:59;;;;;;;3.40;2.70;;;;;;;;;;5012849;28;20482;-43
2023/01/08 04:34:25;;;;;;;2.60;2.30;;;;;;;;;;5009786;28;20419;-43
2023/01/08 04:36:51;;;;;;;3.13;2.70;;;;;;;;;;5012774;28;20467;-43
2023/01/08 04:39:17;;;;;;;4.20;2.50;;;;;;;;;;5006179;28;20431;-44
2023/01/08 04:41:43;;;;;;;2.53;2.23;;;;;;;;;;5012624;28;20399;-43
2023/01/08 04:44:09;;;;;;;3.13;2.57;;;;;;;;;;5012704;28;20411;-44
2023/01/08 04:46:35;;;;;;;2.40;2.30;;;;;;;;;;5010710;28;20510;-43
2023/01/08 04:49:01;;;;;;;2.80;2.60;;;;;;;;;;5012085;28;20954;-44
2023/01/08 04:51:27;;;;;;;2.13;1.90;;;;;;;;;;5012535;28;20459;-44
2023/01/08 04:53:53;;;;;;;3.00;2.43;;;;;;;;;;5006425;28;20414;-44
2023/01/08 04:56:19;;;;;;;2.43;2.33;;;;;;;;;;5004548;28;20462;-43
2023/01/08 04:58:45;;;;;;;3.53;2.27;;;;;;;;;;5010685;28;20435;-43
2023/01/08 05:01:12;;;;;;;3.00;2.10;;;;;;;;;;5012407;28;20410;-44
2023/01/08 05:03:38;;;;;;;1.90;1.80;;;;;;;;;;5008382;28;20420;-44
2023/01/08 05:06:05;;;;;;;2.40;2.23;;;;;;;;;;5011783;28;20403;-44
2023/01/08 05:08:31;;;;;;;3.10;2.07;;;;;;;;;;5012138;28;20419;-43
2023/01/08 05:11:00;;;;;;;2.37;2.27;;;;;;;;;;5004455;28;20560;-43
2023/01/08 05:13:26;;;;;;;2.20;2.10;;;;;;;;;;5010923;28;20425;-44
2023/01/08 05:15:52;;;;;;;2.20;2.10;;;;;;;;;;5012052;28;20426;-44
2023/01/08 05:18:18;;;;;;;1.93;1.83;;;;;;;;;;5007063;28;20433;-43
2023/01/08 05:20:44;;;;;;;2.47;2.27;;;;;;;;;;5012195;28;20433;-44
2023/01/08 05:23:10;;;;;;;1.97;1.83;;;;;;;;;;5008899;28;20494;-43
2023/01/08 05:25:36;;;;;;;2.50;2.10;;;;;;;;;;5007423;28;20539;-43
2023/01/08 05:28:02;;;;;;;1.97;1.80;;;;;;;;;;5010652;28;20431;-44
2023/01/08 05:30:28;;;;;;;1.80;1.70;;;;;;;;;;5011723;28;20442;-44
2023/01/08 05:32:54;;;;;;;2.37;2.17;;;;;;;;;;5007097;28;20446;-44
2023/01/08 05:35:20;;;;;;;3.00;2.40;;;;;;;;;;5011822;28;20422;-43
2023/01/08 05:37:46;;;;;;;2.67;2.47;;;;;;;;;;5009848;28;20462;-44
2023/01/08 05:40:12;;;;;;;2.03;1.83;;;;;;;;;;5010671;28;20492;-43
2023/01/08 05:42:38;;;;;;;2.43;2.23;;;;;;;;;;5011692;28;20761;-44
2023/01/08 05:45:04;;;;;;;2.67;1.97;;;;;;;;;;5011250;28;20852;-44
2023/01/08 05:47:31;;;;;;;4.20;2.13;;;;;;;;;;5006518;28;20856;-43
2023/01/08 05:49:57;;;;;;;2.10;2.00;;;;;;;;;;5011121;28;20514;-44
2023/01/08 05:52:23;;;;;;;2.33;2.13;;;;;;;;;;5003900;28;20446;-44
2023/01/08 05:54:49;;;;;;;1.80;1.70;;;;;;;;;;5010554;28;20415;-44
2023/01/08 05:57:15;;;;;;;2.13;2.00;;;;;;;;;;5010004;28;20451;-44
2023/01/08 05:59:41;;;;;;;2.07;1.87;;;;;;;;;;5012590;28;20437;-43
2023/01/08 06:02:07;;;;;;;1.77;1.40;;;;;;;;;;5013566;28;20392;-43
2023/01/08 06:04:34;;;;;;;3.33;2.17;;;;;;;;;;5010420;28;20506;-43
2023/01/08 06:07:00;;;;;;;2.20;2.00;;;;;;;;;;5007361;28;20414;-44
2023/01/08 06:09:27;;;;;;;1.80;1.70;;;;;;;;;;5013819;28;20469;-43
2023/01/08 06:11:53;;;;;;;1.73;1.63;;;;;;;;;;5015063;28;20468;-43
2023/01/08 06:14:19;;;;;;;2.20;2.00;;;;;;;;;;5009942;28;20510;-44
2023/01/08 06:16:45;;;;;;;2.80;1.87;;;;;;;;;;5008499;28;20571;-44
2023/01/08 06:19:11;;;;;;;1.83;1.73;;;;;;;;;;5014173;28;20446;-44
2023/01/08 06:21:37;;;;;;;1.90;1.70;;;;;;;;;;5014705;28;20445;-44
2023/01/08 06:24:04;;;;;;;2.90;1.83;;;;;;;;;;5014138;28;20524;-43
2023/01/08 06:26:30;;;;;;;1.83;1.70;;;;;;;;;;5011971;28;20422;-43
2023/01/08 06:28:56;;;;;;;2.10;1.90;;;;;;;;;;5013881;28;20488;-44
2023/01/08 06:31:22;;;;;;;2.20;2.00;;;;;;;;;;5009219;28;20512;-43
2023/01/08 06:33:48;;;;;;;2.50;1.67;;;;;;;;;;5014441;28;20418;-43
2023/01/08 06:36:14;;;;;;;2.47;1.43;;;;;;;;;;5013201;28;20469;-43
2023/01/08 06:38:40;;;;;;;1.60;1.50;;;;;;;;;;5014415;28;20431;-43
2023/01/08 06:41:07;;;;;;;1.80;1.70;;;;;;;;;;5015006;28;20403;-43
2023/01/08 06:43:34;;;;;;;1.90;1.80;;;;;;;;;;5014537;28;20504;-43
2023/01/08 06:46:00;;;;;;;2.93;2.10;;;;;;;;;;5008737;28;20422;-44
2023/01/08 06:48:26;;;;;;;2.17;1.93;;;;;;;;;;5014026;28;20493;-43
2023/01/08 06:50:52;;;;;;;2.37;2.00;;;;;;;;;;5013911;28;20430;-43
2023/01/08 06:53:19;;;;;;;1.60;1.50;;;;;;;;;;5011254;28;20435;-43
2023/01/08 06:55:45;;;;;;;2.63;1.67;;;;;;;;;;5008520;28;20452;-43
2023/01/08 06:58:12;;;;;;;1.67;1.57;;;;;;;;;;5012734;28;20476;-43
2023/01/08 07:00:38;;;;;;;1.47;1.37;;;;;;;;;;5013544;28;20400;-43
2023/01/08 07:03:05;;;;;;;1.40;1.30;;;;;;;;;;5018203;28;21013;-43
2023/01/08 07:05:31;;;;;;;1.40;1.30;;;;;;;;;;5014303;28;20507;-44
2023/01/08 07:07:57;;;;;;;1.40;1.30;;;;;;;;;;5013535;28;20522;-44
2023/01/08 07:10:25;;;;;;;1.50;1.40;;;;;;;;;;5009657;28;20441;-44
2023/01/08 07:12:51;;;;;;;1.70;1.60;;;;;;;;;;5014032;28;20451;-44
2023/01/08 07:15:17;;;;;;;1.30;1.20;;;;;;;;;;5010451;28;20447;-43
2023/01/08 07:17:43;;;;;;;1.50;1.40;;;;;;;;;;5009223;28;20463;-43
2023/01/08 07:20:09;;;;;;;2.57;1.30;;;;;;;;;;5014251;28;20457;-43
2023/01/08 07:22:35;;;;;;;3.77;1.53;;;;;;;;;;5014071;28;20434;-44
2023/01/08 07:25:01;;;;;;;2.27;1.40;;;;;;;;;;5009840;28;20810;-43
2023/01/08 07:27:27;;;;;;;2.03;1.50;;;;;;;;;;5013403;28;20425;-43
2023/01/08 07:29:54;;;;;;;1.37;1.27;;;;;;;;;;5013927;28;20518;-43
2023/01/08 07:32:20;;;;;;;1.70;1.60;;;;;;;;;;5013114;28;20512;-44
2023/01/08 07:34:46;;;;;;;1.40;1.30;;;;;;;;;;5014039;28;20549;-43
2023/01/08 07:37:12;;;;;;;1.60;1.50;;;;;;;;;;5013968;28;20478;-43
2023/01/08 07:39:38;;;;;;;1.43;1.33;;;;;;;;;;5013820;28;20438;-43
2023/01/08 07:42:04;;;;;;;1.10;1.00;;;;;;;;;;5013437;28;20414;-43
2023/01/08 07:44:30;;;;;;;1.20;1.00;;;;;;;;;;5006363;28;20445;-43
2023/01/08 07:46:56;;;;;;;1.37;1.27;;;;;;;;;;5012582;28;20433;-43
2023/01/08 07:49:22;;;;;;;0.80;0.80;;;;;;;;;;5013256;28;20435;-43
2023/01/08 07:51:48;;;;;;;1.20;1.10;;;;;;;;;;5013343;28;20965;-44
2023/01/08 07:54:14;;;;;;;1.07;1.00;;;;;;;;;;5013356;28;20407;-43
2023/01/08 07:56:40;;;;;;;2.97;1.37;;;;;;;;;;5013349;28;20560;-44
2023/01/08 07:59:06;;;;;;;1.40;1.30;;;;;;;;;;5012915;28;20529;-43
2023/01/08 08:01:32;;;;;;;1.03;1.03;;;;;;;;;;5012391;28;20615;-43
2023/01/08 08:03:58;;;;;;;2.40;1.40;;;;;;;;;;5012247;28;20455;-43
2023/01/08 08:06:24;;;;;;;1.10;1.00;;;;;;;;;;5013283;28;20966;-43
2023/01/08 08:08:50;;;;;;;1.30;1.20;;;;;;;;;;5012528;28;20445;-44
2023/01/08 08:11:16;;;;;;;3.90;1.40;;;;;;;;;;5013161;28;20410;-44
2023/01/08 08:13:43;;;;;;;1.67;1.33;;;;;;;;;;5012977;28;20500;-43
2023/01/08 08:16:10;;;;;;;1.70;1.03;;;;;;;;;;5005119;28;20509;-44
2023/01/08 08:18:36;;;;;;;1.10;1.00;;;;;;;;;;5011656;28;20476;-44
2023/01/08 08:21:02;;;;;;;1.53;1.10;;;;;;;;;;5012194;28;20417;-44
2023/01/08 08:23:29;;;;;;;1.50;1.40;;;;;;;;;;5012776;28;20954;-43
2023/01/08 08:25:55;;;;;;;1.07;0.97;;;;;;;;;;5012997;28;20889;-44
2023/01/08 08:28:20;;;;;;;1.27;1.10;;;;;;;;;;5012625;28;20497;-44
2023/01/08 08:30:46;;;;;;;5.13;1.33;;;;;;;;;;5012829;28;20426;-43
2023/01/08 08:33:12;;;;;;;2.30;1.00;;;;;;;;;;5012851;28;20653;-43
2023/01/08 08:35:39;;;;;;;2.30;1.10;;;;;;;;;;5008776;28;20414;-44
2023/01/08 08:38:05;;;;;;;1.87;1.10;;;;;;;;;;5011969;28;20498;-44
2023/01/08 08:40:31;;;;;;;2.30;1.30;;;;;;;;;;5005328;28;20432;-43
2023/01/08 08:43:00;;;;;;;4.13;1.73;;;;;;;;;;5011542;28;20913;-43
2023/01/08 08:45:27;;;;;;;3.60;1.20;;;;;;;;;;5012441;28;20418;-43
2023/01/08 08:47:53;;;;;;;3.40;1.23;;;;;;;;;;5011949;28;20909;-44
2023/01/08 08:50:19;;;;;;;7.63;1.70;;;;;;;;;;5010365;28;20487;-43
2023/01/08 08:52:47;;;;;;;3.37;1.17;;;;;;;;;;5009081;28;20445;-43
2023/01/08 08:55:15;;;;;;;5.00;1.80;;;;;;;;;;5011527;28;20447;-44
2023/01/08 08:57:41;;;;;;;6.80;1.30;;;;;;;;;;5011794;28;20560;-43
2023/01/08 09:00:07;;;;;;;4.90;1.20;;;;;;;;;;5012352;28;20993;-43
2023/01/08 09:02:33;;;;;;;4.40;1.63;;;;;;;;;;5012123;28;20413;-43
2023/01/08 09:04:59;;;;;;;1.93;1.37;;;;;;;;;;5012094;28;20767;-43
2023/01/08 09:07:25;;;;;;;5.83;1.97;;;;;;;;;;5007961;28;20450;-43
2023/01/08 09:09:51;;;;;;;1.77;1.40;;;;;;;;;;5011930;28;20962;-44
2023/01/08 09:12:17;;;;;;;7.17;1.83;;;;;;;;;;5012227;28;20409;-43
2023/01/08 09:14:44;;;;;;;3.40;2.13;;;;;;;;;;5008983;28;20419;-43
2023/01/08 09:17:09;;;;;;;4.33;1.40;;;;;;;;;;5011425;28;20473;-43
2023/01/08 09:19:37;;;;;;;10.43;1.90;;;;;;;;;;5011766;28;20429;-43
2023/01/08 09:22:03;;;;;;;3.70;1.57;;;;;;;;;;5004716;28;20882;-43
2023/01/08 09:24:33;;;;;;;6.47;2.83;;;;;;;;;;5011308;28;20789;-43
2023/01/08 09:26:59;;;;;;;7.73;1.60;;;;;;;;;;5011845;28;20502;-44
2023/01/08 09:29:25;;;;;;;3.50;2.00;;;;;;;;;;5010202;28;20526;-43
2023/01/08 09:31:51;;;;;;;3.77;1.40;;;;;;;;;;5009515;28;20774;-43
2023/01/08 09:34:17;;;;;;;2.33;1.50;;;;;;;;;;5010885;28;20411;-43
2023/01/08 09:36:43;;;;;;;4.40;1.77;;;;;;;;;;5011486;28;20469;-43
2023/01/08 09:39:12;;;;;;;6.03;1.93;;;;;;;;;;5010911;28;20954;-43
2023/01/08 09:41:40;;;;;;;2.50;1.63;;;;;;;;;;5009293;28;20432;-43
2023/01/08 09:44:07;;;;;;;4.63;1.80;;;;;;;;;;5011414;28;20410;-44
2023/01/08 09:46:34;;;;;;;5.30;1.90;;;;;;;;;;5007511;28;20484;-43
2023/01/08 09:49:20;;;;;;;4.77;1.60;;;;;;;;;;5009448;28;20460;-43
2023/01/08 09:51:46;;;;;;;9.30;2.60;;;;;;;;;;5009916;28;20432;-43
2023/01/08 09:54:14;;;;;;;3.20;1.73;;;;;;;;;;5010685;28;20931;-43
2023/01/08 09:56:40;;;;;;;13.17;1.83;;;;;;;;;;5010359;28;20472;-44
2023/01/08 09:59:06;;;;;;;3.77;1.40;;;;;;;;;;5011363;28;20470;-43
2023/01/08 10:01:37;;;;;;;5.00;1.70;;;;;;;;;;5005516;28;20423;-44
2023/01/08 10:04:04;;;;;;;4.70;1.80;;;;;;;;;;5010908;28;20418;-43
2023/01/08 10:06:30;;;;;;;4.73;1.57;;;;;;;;;;5011280;28;20481;-43
2023/01/08 10:08:57;;;;;;;5.07;2.00;;;;;;;;;;5008675;28;20466;-43
2023/01/08 10:11:23;;;;;;;2.40;1.50;;;;;;;;;;5011221;28;20834;-44
2023/01/08 10:13:53;;;;;;;1.83;1.20;;;;;;;;;;5011054;28;20418;-44
2023/01/08 10:16:24;;;;;;;6.40;1.57;;;;;;;;;;5005874;28;20449;-44
2023/01/08 10:18:50;;;;;;;5.80;1.63;;;;;;;;;;5010532;28;20437;-43
2023/01/08 10:21:17;;;;;;;2.60;1.40;;;;;;;;;;5010449;28;20407;-43
2023/01/08 10:23:50;;;;;;;4.93;1.90;;;;;;;;;;5010712;28;20420;-44
2023/01/08 10:26:36;;;;;;;6.10;1.60;;;;;;;;;;5001070;28;20405;-43
2023/01/08 10:29:06;;;;;;;4.20;1.30;;;;;;;;;;5010798;28;20464;-43
2023/01/08 10:31:32;;;;;;;2.90;1.80;;;;;;;;;;5010587;28;20442;-43
2023/01/08 10:34:07;;;;;;;1.80;1.50;;;;;;;;;;5010887;28;20415;-43
2023/01/08 10:36:38;;;;;;;1.80;1.33;;;;;;;;;;5011299;28;20499;-44
2023/01/08 10:39:05;;;;;;;2.70;1.40;;;;;;;;;;5010745;28;20437;-43
2023/01/08 10:41:36;;;;;;;1.77;1.30;;;;;;;;;;5007845;28;20388;-44
2023/01/08 10:44:03;;;;;;;3.13;1.50;;;;;;;;;;5011260;28;20383;-44
2023/01/08 10:46:36;;;;;;;2.30;1.50;;;;;;;;;;5008266;28;20415;-43
2023/01/08 10:49:03;;;;;;;2.40;1.30;;;;;;;;;;5014063;28;20409;-43
2023/01/08 10:51:30;;;;;;;2.53;1.60;;;;;;;;;;5014671;28;20409;-43
2023/01/08 10:53:59;;;;;;;5.33;2.07;;;;;;;;;;5013634;28;20887;-43
2023/01/08 10:56:27;;;;;;;3.03;1.50;;;;;;;;;;5014736;28;21032;-44
2023/01/08 10:58:53;;;;;;;2.53;1.57;;;;;;;;;;5014264;28;20404;-43
2023/01/08 11:01:27;;;;;;;3.13;1.33;;;;;;;;;;5007865;28;20810;-44
2023/01/08 11:04:04;;;;;;;2.47;2.27;;;;;;;;;;5012908;28;20840;-44
2023/01/08 11:06:32;;;;;;;1.57;1.30;;;;;;;;;;5014674;28;20414;-43
2023/01/08 11:09:03;;;;;;;2.27;1.30;;;;;;;;;;5011484;28;20749;-43
2023/01/08 11:11:35;;;;;;;1.50;1.40;;;;;;;;;;5014488;28;20914;-44
2023/01/08 11:14:03;;;;;;;1.97;1.30;;;;;;;;;;5012547;28;20945;-43
2023/01/08 11:16:33;;;;;;;3.50;1.50;;;;;;;;;;5014165;28;20468;-43
2023/01/08 11:18:59;;;;;;;1.53;1.43;;;;;;;;;;5013948;28;20471;-44
2023/01/08 11:21:29;;;;;;;2.40;1.40;;;;;;;;;;5013187;28;20428;-44
2023/01/08 11:24:01;;;;;;;3.73;1.30;;;;;;;;;;5000407;28;20401;-44
2023/01/08 11:26:28;;;;;;;1.90;1.63;;;;;;;;;;4995236;28;20791;-43
2023/01/08 11:28:59;;;;;;;1.60;1.50;;;;;;;;;;4999214;28;20435;-44
2023/01/08 11:31:32;;;;;;;2.27;1.63;;;;;;;;;;5000383;28;20412;-43
2023/01/08 11:34:02;;;;;;;1.30;1.20;;;;;;;;;;5000171;28;20411;-44
2023/01/08 11:36:37;;;;;;;1.43;1.33;;;;;;;;;;5004754;28;20452;-44
2023/01/08 11:39:05;;;;;;;2.70;1.63;;;;;;;;;;5000028;28;20448;-43
2023/01/08 11:41:38;;;;;;;2.00;1.60;;;;;;;;;;5008796;28;20868;-43
2023/01/08 11:44:10;;;;;;;1.97;1.57;;;;;;;;;;4997768;28;20422;-44
2023/01/08 11:46:59;;;;;;;2.60;1.40;;;;;;;;;;4994628;28;20413;-43
2023/01/08 11:49:34;;;;;;;3.63;1.33;;;;;;;;;;4999992;28;21069;-44
2023/01/08 11:52:19;;;;;;;3.00;1.40;;;;;;;;;;4993895;28;20467;-44
2023/01/08 11:54:48;;;;;;;1.27;1.17;;;;;;;;;;5005191;28;20778;-43
2023/01/08 11:57:33;;;;;;;10.23;1.40;;;;;;;;;;5012432;28;20869;-43
2023/01/08 12:00:12;;;;;;;3.00;1.50;;;;;;;;;;5007610;28;20477;-44
2023/01/08 12:02:37;;;;;;;3.53;1.50;;;;;;;;;;4996553;28;20407;-43
2023/01/08 12:05:03;;;;;;;3.60;1.53;;;;;;;;;;5006664;28;20427;-43
2023/01/08 12:07:37;;;;;;;3.23;1.40;;;;;;;;;;5012468;28;20425;-43
2023/01/08 12:10:21;;;;;;;2.40;1.27;;;;;;;;;;4999473;28;20428;-43
2023/01/08 12:12:47;;;;;;;1.60;1.50;;;;;;;;;;5012422;28;20513;-43
2023/01/08 12:15:20;;;;;;;1.40;1.20;;;;;;;;;;5013283;28;20497;-43
2023/01/08 12:17:46;;;;;;;1.93;1.40;;;;;;;;;;5009301;28;20474;-43
2023/01/08 12:20:12;;;;;;;2.20;1.47;;;;;;;;;;5013115;28;20418;-43
2023/01/08 12:22:45;;;;;;;2.07;1.47;;;;;;;;;;5013109;28;20490;-43
2023/01/08 12:25:18;;;;;;;3.63;1.53;;;;;;;;;;5011681;28;20457;-43
2023/01/08 12:27:56;;;;;;;1.60;1.50;;;;;;;;;;5012799;28;20421;-44
2023/01/08 12:30:35;;;;;;;1.90;1.67;;;;;;;;;;5011868;28;20426;-43
2023/01/08 12:33:11;;;;;;;1.47;1.37;;;;;;;;;;5012761;28;20422;-43
2023/01/08 12:35:41;;;;;;;2.30;1.60;;;;;;;;;;4999725;28;20393;-44
2023/01/08 12:38:12;;;;;;;2.70;1.47;;;;;;;;;;4992756;28;20502;-43
2023/01/08 12:40:40;;;;;;;2.63;1.57;;;;;;;;;;5001812;28;20765;-43
2023/01/08 12:43:08;;;;;;;3.07;1.47;;;;;;;;;;4993210;28;20419;-43
2023/01/08 12:45:37;;;;;;;1.50;1.30;;;;;;;;;;5006316;28;20418;-43
2023/01/08 12:48:13;;;;;;;1.70;1.30;;;;;;;;;;4992468;28;20522;-43
2023/01/08 12:50:54;;;;;;;1.47;1.20;;;;;;;;;;5008074;28;20433;-44
2023/01/08 12:53:26;;;;;;;1.30;1.17;;;;;;;;;;4993470;28;20478;-43
2023/01/08 12:55:55;;;;;;;2.63;1.50;;;;;;;;;;5009008;28;21001;-44
2023/01/08 12:58:47;;;;;;;2.77;1.40;;;;;;;;;;5011604;28;20835;-43
2023/01/08 13:01:25;;;;;;;1.60;1.50;;;;;;;;;;4981651;28;20427;-43
2023/01/08 13:03:52;;;;;;;1.60;1.50;;;;;;;;;;5011867;28;20461;-43
2023/01/08 13:06:19;;;;;;;6.83;2.00;;;;;;;;;;5012208;28;20974;-43
2023/01/08 13:08:49;;;;;;;2.23;1.10;;;;;;;;;;5011748;28;20482;-43
2023/01/08 13:11:23;;;;;;;1.53;1.40;;;;;;;;;;5010346;28;20424;-43
2023/01/08 13:13:57;;;;;;;1.77;1.30;;;;;;;;;;5011131;28;20426;-43
2023/01/08 13:16:24;;;;;;;2.10;1.90;;;;;;;;;;5009590;28;20758;-43
2023/01/08 13:18:54;;;;;;;1.60;1.50;;;;;;;;;;4999312;28;20533;-43
2023/01/08 13:21:28;;;;;;;1.70;1.60;;;;;;;;;;4992835;28;20463;-43
2023/01/08 13:23:59;;;;;;;2.27;1.67;;;;;;;;;;5011526;28;20538;-43
2023/01/08 13:26:30;;;;;;;1.50;1.40;;;;;;;;;;5012024;28;20485;-43
2023/01/08 13:29:05;;;;;;;1.50;1.40;;;;;;;;;;5011734;28;20432;-43
2023/01/08 13:31:39;;;;;;;1.63;1.40;;;;;;;;;;5003598;28;20428;-43
2023/01/08 13:34:17;;;;;;;1.03;1.00;;;;;;;;;;5010868;28;20412;-43
2023/01/08 13:36:54;;;;;;;3.83;1.20;;;;;;;;;;5011922;28;20466;-43
2023/01/08 13:39:24;;;;;;;2.10;1.30;;;;;;;;;;5011473;28;20442;-43
2023/01/08 13:41:57;;;;;;;1.37;1.27;;;;;;;;;;5011724;28;20481;-43
2023/01/08 13:44:33;;;;;;;1.20;1.10;;;;;;;;;;5009520;28;20931;-43
2023/01/08 13:47:00;;;;;;;1.20;1.10;;;;;;;;;;5010382;28;20434;-44
2023/01/08 13:49:28;;;;;;;2.13;1.43;;;;;;;;;;5011449;28;20443;-43
2023/01/08 13:51:54;;;;;;;1.77;1.40;;;;;;;;;;5011760;28;20435;-43
2023/01/08 13:54:22;;;;;;;3.03;1.30;;;;;;;;;;5011577;28;20435;-43
2023/01/08 13:56:51;;;;;;;2.43;1.13;;;;;;;;;;5011428;28;21005;-43
2023/01/08 13:59:26;;;;;;;1.57;1.03;;;;;;;;;;5009383;28;20768;-43
2023/01/08 14:01:55;;;;;;;2.40;1.20;;;;;;;;;;5009923;28;20420;-43
2023/01/08 14:04:22;;;;;;;1.40;1.23;;;;;;;;;;5011434;28;20413;-43
2023/01/08 14:06:48;;;;;;;2.80;1.60;;;;;;;;;;5010259;28;20761;-43
2023/01/08 14:09:24;;;;;;;2.40;1.20;;;;;;;;;;5011114;28;20895;-43
2023/01/08 14:11:54;;;;;;;1.50;1.40;;;;;;;;;;5009018;28;20408;-43
2023/01/08 14:14:22;;;;;;;1.40;1.30;;;;;;;;;;5006883;28;20439;-43
2023/01/08 14:16:48;;;;;;;1.50;1.40;;;;;;;;;;5011339;28;20873;-43
2023/01/08 14:19:16;;;;;;;2.10;1.47;;;;;;;;;;5009552;28;20427;-43
2023/01/08 14:21:45;;;;;;;1.87;1.77;;;;;;;;;;5015354;28;20453;-43
2023/01/08 14:24:14;;;;;;;4.30;1.30;;;;;;;;;;5005920;28;20423;-44
2023/01/08 14:26:40;;;;;;;1.67;1.40;;;;;;;;;;5015379;28;20507;-43
2023/01/08 14:29:26;;;;;;;2.90;1.50;;;;;;;;;;5013670;28;20521;-43
2023/01/08 14:31:54;;;;;;;1.43;1.33;;;;;;;;;;5013146;28;20483;-43
2023/01/08 14:34:21;;;;;;;1.50;1.40;;;;;;;;;;5014891;28;20541;-43
2023/01/08 14:36:48;;;;;;;1.63;1.30;;;;;;;;;;5013735;28;20469;-43
2023/01/08 14:39:23;;;;;;;1.40;1.30;;;;;;;;;;5014614;28;20442;-44
2023/01/08 14:44:35;;;;;;;1.63;1.30;;;;;;;;;;5015041;28;20534;-43
2023/01/08 14:47:01;;;;;;;4.20;2.03;;;;;;;;;;5015201;28;20454;-43
2023/01/08 14:49:28;;;;;;;1.33;1.20;;;;;;;;;;5014586;28;20439;-43
2023/01/08 14:51:56;;;;;;;2.00;1.80;;;;;;;;;;5014636;28;20442;-43